sensor_id;sensor_type;location;lat;lon;timestamp;P1;durP1;ratioP1;P2;durP2;ratioP2
56631;SDS011;42503;39.928;-75.152;2023-03-16T00:08:01;0.85;;;0.43;;
56631;SDS011;42503;39.928;-75.152;2023-03-16T00:18:03;0.60;;;0.50;;
56631;SDS011;42503;39.928;-75.152;2023-03-16T00:28:04;0.45;;;0.43;;
56631;SDS011;42503;39.928;-75.152;2023-03-16T00:38:05;0.40;;;0.40;;
56631;SDS011;42503;39.928;-75.152;2023-03-16T00:48:07;0.70;;;0.45;;
56631;SDS011;42503;39.928;-75.152;2023-03-16T00:58:08;0.50;;;0.50;;
56631;SDS011;42503;39.928;-75.152;2023-03-16T01:08:12;1.85;;;0.52;;
56631;SDS011;42503;39.928;-75.152;2023-03-16T01:18:13;0.55;;;0.40;;
56631;SDS011;42503;39.928;-75.152;2023-03-16T01:28:15;0.30;;;0.30;;
56631;SDS011;42503;39.928;-75.152;2023-03-16T01:38:19;1.40;;;0.38;;
56631;SDS011;42503;39.928;-75.152;2023-03-16T01:48:23;0.68;;;0.55;;
56631;SDS011;42503;39.928;-75.152;2023-03-16T01:58:27;0.32;;;0.30;;
56631;SDS011;42503;39.928;-75.152;2023-03-16T02:08:31;1.92;;;0.55;;
56631;SDS011;42503;39.928;-75.152;2023-03-16T02:18:36;0.60;;;0.60;;
56631;SDS011;42503;39.928;-75.152;2023-03-16T02:28:44;0.40;;;0.40;;
56631;SDS011;42503;39.928;-75.152;2023-03-16T02:39:05;1.05;;;0.30;;
56631;SDS011;42503;39.928;-75.152;2023-03-16T02:49:09;0.60;;;0.50;;
56631;SDS011;42503;39.928;-75.152;2023-03-16T02:59:12;1.08;;;0.60;;
56631;SDS011;42503;39.928;-75.152;2023-03-16T03:09:13;0.40;;;0.40;;
56631;SDS011;42503;39.928;-75.152;2023-03-16T03:19:15;0.45;;;0.40;;
56631;SDS011;42503;39.928;-75.152;2023-03-16T03:29:17;1.90;;;0.50;;
56631;SDS011;42503;39.928;-75.152;2023-03-16T03:39:19;0.55;;;0.55;;
56631;SDS011;42503;39.928;-75.152;2023-03-16T03:49:20;0.60;;;0.55;;
56631;SDS011;42503;39.928;-75.152;2023-03-16T03:59:21;0.38;;;0.30;;
56631;SDS011;42503;39.928;-75.152;2023-03-16T04:09:23;0.43;;;0.40;;
56631;SDS011;42503;39.928;-75.152;2023-03-16T04:19:24;0.70;;;0.43;;
56631;SDS011;42503;39.928;-75.152;2023-03-16T04:29:26;2.92;;;0.50;;
56631;SDS011;42503;39.928;-75.152;2023-03-16T04:39:27;0.93;;;0.40;;
56631;SDS011;42503;39.928;-75.152;2023-03-16T04:49:29;1.33;;;0.50;;
56631;SDS011;42503;39.928;-75.152;2023-03-16T04:59:33;3.22;;;1.33;;
56631;SDS011;42503;39.928;-75.152;2023-03-16T05:09:34;3.08;;;0.60;;
56631;SDS011;42503;39.928;-75.152;2023-03-16T05:19:41;1.13;;;0.60;;
56631;SDS011;42503;39.928;-75.152;2023-03-16T05:29:49;0.45;;;0.40;;
56631;SDS011;42503;39.928;-75.152;2023-03-16T05:39:50;1.30;;;0.40;;
56631;SDS011;42503;39.928;-75.152;2023-03-16T05:49:52;1.65;;;0.43;;
56631;SDS011;42503;39.928;-75.152;2023-03-16T05:59:53;3.53;;;0.50;;
56631;SDS011;42503;39.928;-75.152;2023-03-16T06:09:54;0.75;;;0.40;;
56631;SDS011;42503;39.928;-75.152;2023-03-16T06:19:56;0.40;;;0.40;;
56631;SDS011;42503;39.928;-75.152;2023-03-16T06:29:57;0.80;;;0.60;;
56631;SDS011;42503;39.928;-75.152;2023-03-16T06:39:58;2.08;;;0.60;;
56631;SDS011;42503;39.928;-75.152;2023-03-16T06:50:00;0.63;;;0.50;;
56631;SDS011;42503;39.928;-75.152;2023-03-16T07:00:04;0.32;;;0.32;;
56631;SDS011;42503;39.928;-75.152;2023-03-16T07:10:16;0.75;;;0.65;;
56631;SDS011;42503;39.928;-75.152;2023-03-16T07:20:18;0.40;;;0.40;;
56631;SDS011;42503;39.928;-75.152;2023-03-16T07:30:19;0.45;;;0.40;;
56631;SDS011;42503;39.928;-75.152;2023-03-16T07:40:20;0.85;;;0.50;;
56631;SDS011;42503;39.928;-75.152;2023-03-16T07:50:22;1.70;;;0.60;;
56631;SDS011;42503;39.928;-75.152;2023-03-16T08:00:24;0.65;;;0.57;;
56631;SDS011;42503;39.928;-75.152;2023-03-16T08:10:26;1.15;;;0.60;;
56631;SDS011;42503;39.928;-75.152;2023-03-16T08:20:28;0.50;;;0.50;;
56631;SDS011;42503;39.928;-75.152;2023-03-16T08:30:29;0.70;;;0.70;;
56631;SDS011;42503;39.928;-75.152;2023-03-16T08:40:31;1.40;;;0.50;;
56631;SDS011;42503;39.928;-75.152;2023-03-16T08:50:43;0.98;;;0.60;;
56631;SDS011;42503;39.928;-75.152;2023-03-16T09:00:44;0.80;;;0.50;;
56631;SDS011;42503;39.928;-75.152;2023-03-16T09:10:46;0.50;;;0.50;;
56631;SDS011;42503;39.928;-75.152;2023-03-16T09:20:47;0.93;;;0.60;;
56631;SDS011;42503;39.928;-75.152;2023-03-16T09:30:49;1.15;;;0.50;;
56631;SDS011;42503;39.928;-75.152;2023-03-16T09:40:58;0.88;;;0.70;;
56631;SDS011;42503;39.928;-75.152;2023-03-16T09:51:04;0.57;;;0.57;;
56631;SDS011;42503;39.928;-75.152;2023-03-16T10:01:11;0.75;;;0.60;;
56631;SDS011;42503;39.928;-75.152;2023-03-16T10:11:41;0.50;;;0.47;;
56631;SDS011;42503;39.928;-75.152;2023-03-16T10:21:46;0.47;;;0.47;;
56631;SDS011;42503;39.928;-75.152;2023-03-16T10:31:50;0.52;;;0.52;;
56631;SDS011;42503;39.928;-75.152;2023-03-16T10:41:55;0.80;;;0.68;;
56631;SDS011;42503;39.928;-75.152;2023-03-16T10:51:57;0.70;;;0.70;;
56631;SDS011;42503;39.928;-75.152;2023-03-16T11:02:01;0.85;;;0.80;;
56631;SDS011;42503;39.928;-75.152;2023-03-16T11:12:18;1.20;;;0.50;;
56631;SDS011;42503;39.928;-75.152;2023-03-16T11:22:27;0.90;;;0.70;;
56631;SDS011;42503;39.928;-75.152;2023-03-16T11:32:32;0.68;;;0.60;;
56631;SDS011;42503;39.928;-75.152;2023-03-16T11:42:38;1.45;;;1.10;;
56631;SDS011;42503;39.928;-75.152;2023-03-16T11:53:07;0.77;;;0.70;;
56631;SDS011;42503;39.928;-75.152;2023-03-16T12:03:36;1.20;;;0.80;;
56631;SDS011;42503;39.928;-75.152;2023-03-16T12:23:53;1.13;;;0.90;;
56631;SDS011;42503;39.928;-75.152;2023-03-16T12:34:04;1.43;;;0.90;;
56631;SDS011;42503;39.928;-75.152;2023-03-16T12:44:26;3.47;;;1.00;;
56631;SDS011;42503;39.928;-75.152;2023-03-16T12:54:36;7.90;;;4.10;;
56631;SDS011;42503;39.928;-75.152;2023-03-16T13:05:01;13.88;;;6.82;;
56631;SDS011;42503;39.928;-75.152;2023-03-16T13:35:32;16.50;;;7.57;;
56631;SDS011;42503;39.928;-75.152;2023-03-16T13:45:35;14.02;;;8.82;;
56631;SDS011;42503;39.928;-75.152;2023-03-16T13:55:38;16.92;;;8.98;;
56631;SDS011;42503;39.928;-75.152;2023-03-16T14:05:41;15.48;;;8.65;;
56631;SDS011;42503;39.928;-75.152;2023-03-16T14:15:43;15.60;;;8.80;;
56631;SDS011;42503;39.928;-75.152;2023-03-16T14:25:46;13.75;;;7.93;;
56631;SDS011;42503;39.928;-75.152;2023-03-16T14:35:55;14.98;;;7.85;;
56631;SDS011;42503;39.928;-75.152;2023-03-16T14:45:58;15.25;;;7.47;;
56631;SDS011;42503;39.928;-75.152;2023-03-16T14:56:08;11.02;;;6.00;;
56631;SDS011;42503;39.928;-75.152;2023-03-16T15:06:13;11.68;;;6.40;;
56631;SDS011;42503;39.928;-75.152;2023-03-16T15:16:21;12.52;;;6.95;;
56631;SDS011;42503;39.928;-75.152;2023-03-16T15:26:23;9.48;;;6.00;;
56631;SDS011;42503;39.928;-75.152;2023-03-16T15:36:26;11.82;;;5.97;;
56631;SDS011;42503;39.928;-75.152;2023-03-16T15:46:28;33.05;;;6.13;;
56631;SDS011;42503;39.928;-75.152;2023-03-16T15:56:33;107.25;;;11.80;;
56631;SDS011;42503;39.928;-75.152;2023-03-16T16:06:41;76.95;;;10.85;;
56631;SDS011;42503;39.928;-75.152;2023-03-16T16:16:43;73.82;;;10.82;;
56631;SDS011;42503;39.928;-75.152;2023-03-16T16:26:46;71.97;;;9.63;;
56631;SDS011;42503;39.928;-75.152;2023-03-16T16:36:52;40.00;;;6.68;;
56631;SDS011;42503;39.928;-75.152;2023-03-16T16:46:54;41.65;;;5.82;;
56631;SDS011;42503;39.928;-75.152;2023-03-16T16:56:57;36.17;;;5.75;;
56631;SDS011;42503;39.928;-75.152;2023-03-16T17:07:00;24.02;;;5.90;;
56631;SDS011;42503;39.928;-75.152;2023-03-16T17:17:05;49.78;;;7.65;;
56631;SDS011;42503;39.928;-75.152;2023-03-16T17:37:15;93.68;;;9.25;;
56631;SDS011;42503;39.928;-75.152;2023-03-16T17:47:25;113.88;;;12.15;;
56631;SDS011;42503;39.928;-75.152;2023-03-16T17:57:29;125.60;;;10.10;;
56631;SDS011;42503;39.928;-75.152;2023-03-16T18:07:32;71.53;;;7.95;;
56631;SDS011;42503;39.928;-75.152;2023-03-16T18:17:33;69.63;;;7.10;;
56631;SDS011;42503;39.928;-75.152;2023-03-16T18:27:35;86.70;;;7.70;;
56631;SDS011;42503;39.928;-75.152;2023-03-16T18:37:40;61.85;;;8.27;;
56631;SDS011;42503;39.928;-75.152;2023-03-16T18:47:51;60.60;;;6.53;;
56631;SDS011;42503;39.928;-75.152;2023-03-16T18:57:55;47.35;;;6.60;;
56631;SDS011;42503;39.928;-75.152;2023-03-16T19:07:57;37.88;;;6.28;;
56631;SDS011;42503;39.928;-75.152;2023-03-16T19:18:01;42.65;;;5.68;;
56631;SDS011;42503;39.928;-75.152;2023-03-16T19:28:03;45.40;;;6.57;;
56631;SDS011;42503;39.928;-75.152;2023-03-16T19:38:06;138.75;;;10.63;;
56631;SDS011;42503;39.928;-75.152;2023-03-16T19:48:30;42.58;;;7.18;;
56631;SDS011;42503;39.928;-75.152;2023-03-16T19:58:36;46.45;;;7.32;;
56631;SDS011;42503;39.928;-75.152;2023-03-16T20:08:42;70.35;;;7.68;;
56631;SDS011;42503;39.928;-75.152;2023-03-16T20:18:44;107.78;;;10.10;;
56631;SDS011;42503;39.928;-75.152;2023-03-16T20:28:49;119.35;;;10.73;;
56631;SDS011;42503;39.928;-75.152;2023-03-16T20:38:51;138.20;;;10.70;;
56631;SDS011;42503;39.928;-75.152;2023-03-16T20:48:53;69.30;;;7.78;;
56631;SDS011;42503;39.928;-75.152;2023-03-16T20:58:55;52.17;;;7.35;;
56631;SDS011;42503;39.928;-75.152;2023-03-16T21:08:58;86.70;;;9.90;;
56631;SDS011;42503;39.928;-75.152;2023-03-16T21:19:02;73.20;;;7.63;;
56631;SDS011;42503;39.928;-75.152;2023-03-16T21:29:04;70.68;;;9.13;;
56631;SDS011;42503;39.928;-75.152;2023-03-16T21:39:18;95.60;;;9.98;;
56631;SDS011;42503;39.928;-75.152;2023-03-16T21:49:22;105.30;;;10.20;;
56631;SDS011;42503;39.928;-75.152;2023-03-16T21:59:23;102.90;;;12.27;;
56631;SDS011;42503;39.928;-75.152;2023-03-16T22:09:24;96.72;;;12.45;;
56631;SDS011;42503;39.928;-75.152;2023-03-16T22:19:32;72.15;;;10.48;;
56631;SDS011;42503;39.928;-75.152;2023-03-16T22:29:34;70.97;;;9.80;;
56631;SDS011;42503;39.928;-75.152;2023-03-16T22:39:36;64.90;;;9.13;;
56631;SDS011;42503;39.928;-75.152;2023-03-16T22:49:44;67.75;;;8.15;;
56631;SDS011;42503;39.928;-75.152;2023-03-16T22:59:45;48.53;;;7.68;;
56631;SDS011;42503;39.928;-75.152;2023-03-16T23:09:50;41.75;;;6.88;;
56631;SDS011;42503;39.928;-75.152;2023-03-16T23:19:57;39.10;;;5.63;;
56631;SDS011;42503;39.928;-75.152;2023-03-16T23:29:59;28.65;;;6.18;;
56631;SDS011;42503;39.928;-75.152;2023-03-16T23:40:00;28.65;;;5.10;;
56631;SDS011;42503;39.928;-75.152;2023-03-16T23:50:03;26.50;;;5.30;;
